sensor_id;sensor_type;location;lat;lon;timestamp;P1;durP1;ratioP1;P2;durP2;ratioP2
28130;SDS011;15418;42.634;23.374;2022-08-21T00:00:16;27.95;;;16.27;;
28130;SDS011;15418;42.634;23.374;2022-08-21T00:02:48;26.70;;;15.18;;
28130;SDS011;15418;42.634;23.374;2022-08-21T00:05:18;24.95;;;14.02;;
28130;SDS011;15418;42.634;23.374;2022-08-21T00:07:44;19.27;;;11.90;;
28130;SDS011;15418;42.634;23.374;2022-08-21T00:10:13;16.63;;;11.20;;
28130;SDS011;15418;42.634;23.374;2022-08-21T00:12:39;17.25;;;10.25;;
28130;SDS011;15418;42.634;23.374;2022-08-21T00:15:07;22.25;;;13.60;;
28130;SDS011;15418;42.634;23.374;2022-08-21T00:17:33;23.60;;;11.55;;
28130;SDS011;15418;42.634;23.374;2022-08-21T00:19:59;15.80;;;9.25;;
28130;SDS011;15418;42.634;23.374;2022-08-21T00:22:24;25.58;;;9.40;;
28130;SDS011;15418;42.634;23.374;2022-08-21T00:24:50;21.05;;;10.52;;
28130;SDS011;15418;42.634;23.374;2022-08-21T00:27:15;16.58;;;10.48;;
28130;SDS011;15418;42.634;23.374;2022-08-21T00:29:41;21.88;;;12.90;;
28130;SDS011;15418;42.634;23.374;2022-08-21T00:32:06;21.58;;;11.98;;
28130;SDS011;15418;42.634;23.374;2022-08-21T00:34:32;21.17;;;11.27;;
28130;SDS011;15418;42.634;23.374;2022-08-21T00:36:57;19.67;;;11.70;;
28130;SDS011;15418;42.634;23.374;2022-08-21T00:39:23;21.15;;;12.45;;
28130;SDS011;15418;42.634;23.374;2022-08-21T00:41:48;20.02;;;10.70;;
28130;SDS011;15418;42.634;23.374;2022-08-21T00:44:14;20.30;;;11.43;;
28130;SDS011;15418;42.634;23.374;2022-08-21T00:46:41;22.55;;;12.52;;
28130;SDS011;15418;42.634;23.374;2022-08-21T00:49:07;24.55;;;12.18;;
28130;SDS011;15418;42.634;23.374;2022-08-21T00:54:40;21.50;;;12.07;;
28130;SDS011;15418;42.634;23.374;2022-08-21T00:57:09;24.90;;;13.10;;
28130;SDS011;15418;42.634;23.374;2022-08-21T00:59:38;28.70;;;14.13;;
28130;SDS011;15418;42.634;23.374;2022-08-21T01:02:06;29.33;;;16.55;;
28130;SDS011;15418;42.634;23.374;2022-08-21T01:04:34;26.45;;;16.00;;
28130;SDS011;15418;42.634;23.374;2022-08-21T01:07:00;29.83;;;18.05;;
28130;SDS011;15418;42.634;23.374;2022-08-21T01:09:28;33.20;;;16.85;;
28130;SDS011;15418;42.634;23.374;2022-08-21T01:11:53;28.90;;;16.77;;
28130;SDS011;15418;42.634;23.374;2022-08-21T01:14:19;33.85;;;19.13;;
28130;SDS011;15418;42.634;23.374;2022-08-21T01:16:46;30.30;;;18.10;;
28130;SDS011;15418;42.634;23.374;2022-08-21T01:19:14;33.08;;;16.65;;
28130;SDS011;15418;42.634;23.374;2022-08-21T01:21:41;27.63;;;14.38;;
28130;SDS011;15418;42.634;23.374;2022-08-21T01:24:07;24.65;;;14.15;;
28130;SDS011;15418;42.634;23.374;2022-08-21T01:26:34;34.67;;;16.15;;
28130;SDS011;15418;42.634;23.374;2022-08-21T01:31:30;29.42;;;16.48;;
28130;SDS011;15418;42.634;23.374;2022-08-21T01:33:58;25.88;;;15.65;;
28130;SDS011;15418;42.634;23.374;2022-08-21T01:36:24;29.88;;;17.70;;
28130;SDS011;15418;42.634;23.374;2022-08-21T01:38:50;25.65;;;15.68;;
28130;SDS011;15418;42.634;23.374;2022-08-21T01:41:18;28.15;;;15.82;;
28130;SDS011;15418;42.634;23.374;2022-08-21T01:43:45;32.53;;;17.73;;
28130;SDS011;15418;42.634;23.374;2022-08-21T01:46:11;27.77;;;17.38;;
28130;SDS011;15418;42.634;23.374;2022-08-21T01:48:37;35.95;;;19.05;;
28130;SDS011;15418;42.634;23.374;2022-08-21T01:51:04;37.40;;;18.90;;
28130;SDS011;15418;42.634;23.374;2022-08-21T01:53:31;39.45;;;20.75;;
28130;SDS011;15418;42.634;23.374;2022-08-21T01:55:59;35.03;;;19.02;;
28130;SDS011;15418;42.634;23.374;2022-08-21T01:58:25;37.22;;;20.77;;
28130;SDS011;15418;42.634;23.374;2022-08-21T02:00:50;44.05;;;19.85;;
28130;SDS011;15418;42.634;23.374;2022-08-21T02:03:16;40.47;;;19.15;;
28130;SDS011;15418;42.634;23.374;2022-08-21T02:05:41;35.30;;;19.25;;
28130;SDS011;15418;42.634;23.374;2022-08-21T02:08:07;36.65;;;19.60;;
28130;SDS011;15418;42.634;23.374;2022-08-21T02:10:32;39.65;;;19.92;;
28130;SDS011;15418;42.634;23.374;2022-08-21T02:12:58;35.10;;;18.95;;
28130;SDS011;15418;42.634;23.374;2022-08-21T02:15:25;33.80;;;19.23;;
28130;SDS011;15418;42.634;23.374;2022-08-21T02:17:56;31.60;;;17.42;;
28130;SDS011;15418;42.634;23.374;2022-08-21T02:20:30;29.75;;;15.82;;
28130;SDS011;15418;42.634;23.374;2022-08-21T02:22:57;37.63;;;17.38;;
28130;SDS011;15418;42.634;23.374;2022-08-21T02:25:24;33.13;;;16.88;;
28130;SDS011;15418;42.634;23.374;2022-08-21T02:27:51;23.00;;;13.32;;
28130;SDS011;15418;42.634;23.374;2022-08-21T02:30:19;29.42;;;12.68;;
28130;SDS011;15418;42.634;23.374;2022-08-21T02:32:49;26.58;;;12.65;;
28130;SDS011;15418;42.634;23.374;2022-08-21T02:35:15;22.67;;;12.30;;
28130;SDS011;15418;42.634;23.374;2022-08-21T02:37:51;22.27;;;10.48;;
28130;SDS011;15418;42.634;23.374;2022-08-21T02:40:24;25.17;;;10.98;;
28130;SDS011;15418;42.634;23.374;2022-08-21T02:42:52;19.95;;;10.40;;
28130;SDS011;15418;42.634;23.374;2022-08-21T02:45:18;15.95;;;10.32;;
28130;SDS011;15418;42.634;23.374;2022-08-21T02:47:58;19.23;;;10.05;;
28130;SDS011;15418;42.634;23.374;2022-08-21T02:50:27;18.23;;;9.30;;
28130;SDS011;15418;42.634;23.374;2022-08-21T02:52:55;15.90;;;8.20;;
28130;SDS011;15418;42.634;23.374;2022-08-21T02:55:25;14.48;;;7.30;;
28130;SDS011;15418;42.634;23.374;2022-08-21T02:57:53;18.27;;;7.60;;
28130;SDS011;15418;42.634;23.374;2022-08-21T03:00:20;16.02;;;7.93;;
28130;SDS011;15418;42.634;23.374;2022-08-21T03:02:48;13.35;;;6.65;;
28130;SDS011;15418;42.634;23.374;2022-08-21T03:05:14;12.43;;;6.20;;
28130;SDS011;15418;42.634;23.374;2022-08-21T03:07:41;14.13;;;6.10;;
28130;SDS011;15418;42.634;23.374;2022-08-21T03:10:08;13.90;;;5.97;;
28130;SDS011;15418;42.634;23.374;2022-08-21T03:12:34;12.38;;;5.38;;
28130;SDS011;15418;42.634;23.374;2022-08-21T03:15:07;15.02;;;5.70;;
28130;SDS011;15418;42.634;23.374;2022-08-21T03:17:34;14.35;;;5.90;;
28130;SDS011;15418;42.634;23.374;2022-08-21T03:20:00;14.20;;;6.05;;
28130;SDS011;15418;42.634;23.374;2022-08-21T03:22:26;11.73;;;6.15;;
28130;SDS011;15418;42.634;23.374;2022-08-21T03:24:52;15.15;;;9.43;;
28130;SDS011;15418;42.634;23.374;2022-08-21T03:27:18;21.35;;;11.15;;
28130;SDS011;15418;42.634;23.374;2022-08-21T03:29:44;11.18;;;5.63;;
28130;SDS011;15418;42.634;23.374;2022-08-21T03:32:12;21.88;;;6.75;;
28130;SDS011;15418;42.634;23.374;2022-08-21T03:34:38;13.43;;;6.78;;
28130;SDS011;15418;42.634;23.374;2022-08-21T03:37:04;10.50;;;5.40;;
28130;SDS011;15418;42.634;23.374;2022-08-21T03:39:31;12.23;;;5.80;;
28130;SDS011;15418;42.634;23.374;2022-08-21T03:41:57;14.35;;;6.07;;
28130;SDS011;15418;42.634;23.374;2022-08-21T03:44:24;10.35;;;5.38;;
28130;SDS011;15418;42.634;23.374;2022-08-21T03:46:49;17.55;;;6.25;;
28130;SDS011;15418;42.634;23.374;2022-08-21T03:49:15;16.92;;;5.82;;
28130;SDS011;15418;42.634;23.374;2022-08-21T03:51:40;19.25;;;10.70;;
28130;SDS011;15418;42.634;23.374;2022-08-21T03:54:06;13.23;;;6.43;;
28130;SDS011;15418;42.634;23.374;2022-08-21T03:56:31;13.27;;;6.28;;
28130;SDS011;15418;42.634;23.374;2022-08-21T03:58:57;17.33;;;6.80;;
28130;SDS011;15418;42.634;23.374;2022-08-21T04:01:23;18.85;;;7.97;;
28130;SDS011;15418;42.634;23.374;2022-08-21T04:03:49;21.85;;;10.88;;
28130;SDS011;15418;42.634;23.374;2022-08-21T04:06:15;26.45;;;12.88;;
28130;SDS011;15418;42.634;23.374;2022-08-21T04:08:40;20.67;;;12.43;;
28130;SDS011;15418;42.634;23.374;2022-08-21T04:11:08;21.15;;;11.90;;
28130;SDS011;15418;42.634;23.374;2022-08-21T04:13:35;21.02;;;11.82;;
28130;SDS011;15418;42.634;23.374;2022-08-21T04:16:05;18.45;;;12.30;;
28130;SDS011;15418;42.634;23.374;2022-08-21T04:18:31;22.73;;;11.45;;
28130;SDS011;15418;42.634;23.374;2022-08-21T04:20:57;18.40;;;11.15;;
28130;SDS011;15418;42.634;23.374;2022-08-21T04:23:24;19.63;;;9.18;;
28130;SDS011;15418;42.634;23.374;2022-08-21T04:25:51;18.30;;;10.20;;
28130;SDS011;15418;42.634;23.374;2022-08-21T04:28:17;19.60;;;12.02;;
28130;SDS011;15418;42.634;23.374;2022-08-21T04:30:43;33.67;;;22.33;;
28130;SDS011;15418;42.634;23.374;2022-08-21T04:33:09;22.42;;;9.10;;
28130;SDS011;15418;42.634;23.374;2022-08-21T04:35:35;20.27;;;9.73;;
28130;SDS011;15418;42.634;23.374;2022-08-21T04:38:00;21.45;;;10.30;;
28130;SDS011;15418;42.634;23.374;2022-08-21T04:40:27;27.90;;;9.18;;
28130;SDS011;15418;42.634;23.374;2022-08-21T04:42:58;19.60;;;9.55;;
28130;SDS011;15418;42.634;23.374;2022-08-21T04:45:31;20.13;;;7.40;;
28130;SDS011;15418;42.634;23.374;2022-08-21T04:48:07;11.55;;;7.68;;
28130;SDS011;15418;42.634;23.374;2022-08-21T04:50:44;20.38;;;8.93;;
28130;SDS011;15418;42.634;23.374;2022-08-21T04:53:22;16.50;;;7.55;;
28130;SDS011;15418;42.634;23.374;2022-08-21T04:55:48;17.95;;;7.03;;
28130;SDS011;15418;42.634;23.374;2022-08-21T04:58:16;15.68;;;6.88;;
28130;SDS011;15418;42.634;23.374;2022-08-21T05:00:44;21.42;;;6.90;;
28130;SDS011;15418;42.634;23.374;2022-08-21T05:03:12;17.77;;;6.85;;
28130;SDS011;15418;42.634;23.374;2022-08-21T05:05:39;11.18;;;5.63;;
28130;SDS011;15418;42.634;23.374;2022-08-21T05:08:05;14.20;;;6.03;;
28130;SDS011;15418;42.634;23.374;2022-08-21T05:10:36;14.30;;;5.22;;
28130;SDS011;15418;42.634;23.374;2022-08-21T05:13:01;17.23;;;5.38;;
28130;SDS011;15418;42.634;23.374;2022-08-21T05:15:27;16.13;;;5.15;;
28130;SDS011;15418;42.634;23.374;2022-08-21T05:17:55;15.32;;;7.00;;
28130;SDS011;15418;42.634;23.374;2022-08-21T05:20:21;16.40;;;7.60;;
28130;SDS011;15418;42.634;23.374;2022-08-21T05:22:46;18.40;;;7.93;;
28130;SDS011;15418;42.634;23.374;2022-08-21T05:25:12;13.98;;;6.38;;
28130;SDS011;15418;42.634;23.374;2022-08-21T05:27:37;13.23;;;6.30;;
28130;SDS011;15418;42.634;23.374;2022-08-21T05:30:03;10.30;;;5.35;;
28130;SDS011;15418;42.634;23.374;2022-08-21T05:32:30;14.52;;;6.13;;
28130;SDS011;15418;42.634;23.374;2022-08-21T05:34:56;12.07;;;5.30;;
28130;SDS011;15418;42.634;23.374;2022-08-21T05:37:21;13.10;;;6.05;;
28130;SDS011;15418;42.634;23.374;2022-08-21T05:39:47;11.38;;;5.35;;
28130;SDS011;15418;42.634;23.374;2022-08-21T05:42:12;15.57;;;4.82;;
28130;SDS011;15418;42.634;23.374;2022-08-21T05:44:38;12.20;;;4.30;;
28130;SDS011;15418;42.634;23.374;2022-08-21T05:47:06;13.75;;;6.82;;
28130;SDS011;15418;42.634;23.374;2022-08-21T05:49:36;17.73;;;6.70;;
28130;SDS011;15418;42.634;23.374;2022-08-21T05:52:02;9.60;;;3.70;;
28130;SDS011;15418;42.634;23.374;2022-08-21T05:54:31;10.38;;;5.45;;
28130;SDS011;15418;42.634;23.374;2022-08-21T05:56:56;12.38;;;5.18;;
28130;SDS011;15418;42.634;23.374;2022-08-21T05:59:22;11.68;;;4.88;;
28130;SDS011;15418;42.634;23.374;2022-08-21T06:01:48;17.75;;;4.93;;
28130;SDS011;15418;42.634;23.374;2022-08-21T06:04:13;17.08;;;6.68;;
28130;SDS011;15418;42.634;23.374;2022-08-21T06:06:39;14.63;;;6.10;;
28130;SDS011;15418;42.634;23.374;2022-08-21T06:09:05;14.13;;;6.13;;
28130;SDS011;15418;42.634;23.374;2022-08-21T06:11:31;16.00;;;6.03;;
28130;SDS011;15418;42.634;23.374;2022-08-21T06:13:58;16.67;;;7.40;;
28130;SDS011;15418;42.634;23.374;2022-08-21T06:16:24;13.38;;;7.00;;
28130;SDS011;15418;42.634;23.374;2022-08-21T06:18:50;15.57;;;6.78;;
28130;SDS011;15418;42.634;23.374;2022-08-21T06:21:16;20.67;;;8.70;;
28130;SDS011;15418;42.634;23.374;2022-08-21T06:23:42;17.77;;;7.40;;
28130;SDS011;15418;42.634;23.374;2022-08-21T06:26:08;17.17;;;8.85;;
28130;SDS011;15418;42.634;23.374;2022-08-21T06:28:35;14.13;;;7.72;;
28130;SDS011;15418;42.634;23.374;2022-08-21T06:31:09;19.92;;;7.88;;
28130;SDS011;15418;42.634;23.374;2022-08-21T06:33:35;19.33;;;5.63;;
28130;SDS011;15418;42.634;23.374;2022-08-21T06:36:00;13.07;;;5.05;;
28130;SDS011;15418;42.634;23.374;2022-08-21T06:38:29;14.50;;;5.25;;
28130;SDS011;15418;42.634;23.374;2022-08-21T06:40:54;16.60;;;4.90;;
28130;SDS011;15418;42.634;23.374;2022-08-21T06:43:20;13.45;;;5.13;;
28130;SDS011;15418;42.634;23.374;2022-08-21T06:45:47;11.65;;;5.65;;
28130;SDS011;15418;42.634;23.374;2022-08-21T06:48:13;16.83;;;5.40;;
28130;SDS011;15418;42.634;23.374;2022-08-21T06:50:38;14.02;;;5.40;;
28130;SDS011;15418;42.634;23.374;2022-08-21T06:53:07;10.02;;;5.38;;
28130;SDS011;15418;42.634;23.374;2022-08-21T06:55:35;14.88;;;8.13;;
28130;SDS011;15418;42.634;23.374;2022-08-21T06:58:01;18.77;;;7.82;;
28130;SDS011;15418;42.634;23.374;2022-08-21T07:00:27;30.42;;;8.27;;
28130;SDS011;15418;42.634;23.374;2022-08-21T07:02:56;15.63;;;8.15;;
28130;SDS011;15418;42.634;23.374;2022-08-21T07:05:24;79.18;;;10.93;;
28130;SDS011;15418;42.634;23.374;2022-08-21T07:07:51;24.17;;;7.85;;
28130;SDS011;15418;42.634;23.374;2022-08-21T07:10:16;19.45;;;7.57;;
28130;SDS011;15418;42.634;23.374;2022-08-21T07:12:42;17.85;;;8.07;;
28130;SDS011;15418;42.634;23.374;2022-08-21T07:15:07;16.80;;;8.43;;
28130;SDS011;15418;42.634;23.374;2022-08-21T07:17:33;18.45;;;7.53;;
28130;SDS011;15418;42.634;23.374;2022-08-21T07:19:59;15.77;;;7.40;;
28130;SDS011;15418;42.634;23.374;2022-08-21T07:22:24;23.67;;;7.45;;
28130;SDS011;15418;42.634;23.374;2022-08-21T07:24:52;30.90;;;8.10;;
28130;SDS011;15418;42.634;23.374;2022-08-21T07:27:18;20.00;;;7.60;;
28130;SDS011;15418;42.634;23.374;2022-08-21T07:29:44;27.45;;;8.18;;
28130;SDS011;15418;42.634;23.374;2022-08-21T07:32:09;15.23;;;6.93;;
28130;SDS011;15418;42.634;23.374;2022-08-21T07:34:34;16.70;;;8.48;;
28130;SDS011;15418;42.634;23.374;2022-08-21T07:37:00;17.10;;;7.60;;
28130;SDS011;15418;42.634;23.374;2022-08-21T07:39:25;21.98;;;7.50;;
28130;SDS011;15418;42.634;23.374;2022-08-21T07:41:51;18.58;;;8.15;;
28130;SDS011;15418;42.634;23.374;2022-08-21T07:44:16;17.13;;;7.40;;
28130;SDS011;15418;42.634;23.374;2022-08-21T07:46:42;21.33;;;7.20;;
28130;SDS011;15418;42.634;23.374;2022-08-21T07:49:07;16.20;;;6.38;;
28130;SDS011;15418;42.634;23.374;2022-08-21T07:51:33;14.55;;;6.72;;
28130;SDS011;15418;42.634;23.374;2022-08-21T07:53:59;17.85;;;6.20;;
28130;SDS011;15418;42.634;23.374;2022-08-21T07:56:26;17.58;;;7.28;;
28130;SDS011;15418;42.634;23.374;2022-08-21T07:58:52;14.88;;;6.80;;
28130;SDS011;15418;42.634;23.374;2022-08-21T08:01:18;18.60;;;6.93;;
28130;SDS011;15418;42.634;23.374;2022-08-21T08:03:44;17.30;;;7.03;;
28130;SDS011;15418;42.634;23.374;2022-08-21T08:06:13;22.50;;;7.45;;
28130;SDS011;15418;42.634;23.374;2022-08-21T08:08:39;20.73;;;7.40;;
28130;SDS011;15418;42.634;23.374;2022-08-21T08:11:05;11.77;;;6.22;;
28130;SDS011;15418;42.634;23.374;2022-08-21T08:13:37;17.23;;;7.40;;
28130;SDS011;15418;42.634;23.374;2022-08-21T08:16:03;15.85;;;6.75;;
28130;SDS011;15418;42.634;23.374;2022-08-21T08:18:29;18.92;;;7.72;;
28130;SDS011;15418;42.634;23.374;2022-08-21T08:20:57;23.00;;;6.80;;
28130;SDS011;15418;42.634;23.374;2022-08-21T08:23:23;17.13;;;8.40;;
28130;SDS011;15418;42.634;23.374;2022-08-21T08:25:49;16.70;;;6.82;;
28130;SDS011;15418;42.634;23.374;2022-08-21T08:28:16;18.45;;;7.13;;
28130;SDS011;15418;42.634;23.374;2022-08-21T08:30:42;18.55;;;7.82;;
28130;SDS011;15418;42.634;23.374;2022-08-21T08:33:07;19.05;;;7.68;;
28130;SDS011;15418;42.634;23.374;2022-08-21T08:35:33;20.63;;;7.72;;
28130;SDS011;15418;42.634;23.374;2022-08-21T08:37:59;22.52;;;7.95;;
28130;SDS011;15418;42.634;23.374;2022-08-21T08:40:47;17.48;;;7.00;;
28130;SDS011;15418;42.634;23.374;2022-08-21T08:43:13;15.23;;;7.07;;
28130;SDS011;15418;42.634;23.374;2022-08-21T08:45:42;12.50;;;7.13;;
28130;SDS011;15418;42.634;23.374;2022-08-21T08:48:12;18.17;;;7.50;;
28130;SDS011;15418;42.634;23.374;2022-08-21T08:50:44;13.98;;;7.80;;
28130;SDS011;15418;42.634;23.374;2022-08-21T08:53:30;17.30;;;6.50;;
28130;SDS011;15418;42.634;23.374;2022-08-21T08:56:00;18.05;;;7.45;;
28130;SDS011;15418;42.634;23.374;2022-08-21T08:58:37;22.80;;;7.28;;
28130;SDS011;15418;42.634;23.374;2022-08-21T09:01:08;12.32;;;6.65;;
28130;SDS011;15418;42.634;23.374;2022-08-21T09:03:40;18.08;;;7.25;;
28130;SDS011;15418;42.634;23.374;2022-08-21T09:06:11;16.50;;;6.97;;
28130;SDS011;15418;42.634;23.374;2022-08-21T09:08:58;15.45;;;7.30;;
28130;SDS011;15418;42.634;23.374;2022-08-21T09:14:21;13.45;;;7.03;;
28130;SDS011;15418;42.634;23.374;2022-08-21T09:17:10;18.40;;;7.28;;
28130;SDS011;15418;42.634;23.374;2022-08-21T09:27:58;18.17;;;8.50;;
28130;SDS011;15418;42.634;23.374;2022-08-21T09:30:29;16.30;;;7.35;;
28130;SDS011;15418;42.634;23.374;2022-08-21T09:32:57;14.30;;;6.80;;
28130;SDS011;15418;42.634;23.374;2022-08-21T09:35:23;17.77;;;6.88;;
28130;SDS011;15418;42.634;23.374;2022-08-21T09:43:21;22.50;;;9.82;;
28130;SDS011;15418;42.634;23.374;2022-08-21T09:45:49;17.58;;;7.53;;
28130;SDS011;15418;42.634;23.374;2022-08-21T09:48:46;12.98;;;7.70;;
28130;SDS011;15418;42.634;23.374;2022-08-21T09:51:15;23.02;;;7.45;;
28130;SDS011;15418;42.634;23.374;2022-08-21T09:53:50;17.92;;;7.93;;
28130;SDS011;15418;42.634;23.374;2022-08-21T09:56:36;20.27;;;7.65;;
28130;SDS011;15418;42.634;23.374;2022-08-21T09:59:29;15.30;;;7.00;;
28130;SDS011;15418;42.634;23.374;2022-08-21T10:01:57;16.95;;;6.55;;
28130;SDS011;15418;42.634;23.374;2022-08-21T10:04:33;17.67;;;8.23;;
28130;SDS011;15418;42.634;23.374;2022-08-21T10:07:07;20.70;;;6.70;;
28130;SDS011;15418;42.634;23.374;2022-08-21T10:09:34;14.18;;;6.45;;
28130;SDS011;15418;42.634;23.374;2022-08-21T10:12:16;17.88;;;9.18;;
28130;SDS011;15418;42.634;23.374;2022-08-21T10:29:44;16.58;;;6.20;;
28130;SDS011;15418;42.634;23.374;2022-08-21T10:37:52;13.45;;;6.30;;
28130;SDS011;15418;42.634;23.374;2022-08-21T10:43:16;16.92;;;7.03;;
28130;SDS011;15418;42.634;23.374;2022-08-21T10:49:07;13.02;;;6.30;;
28130;SDS011;15418;42.634;23.374;2022-08-21T10:51:42;14.75;;;6.03;;
28130;SDS011;15418;42.634;23.374;2022-08-21T10:56:50;15.07;;;7.28;;
28130;SDS011;15418;42.634;23.374;2022-08-21T10:59:42;9.02;;;5.45;;
28130;SDS011;15418;42.634;23.374;2022-08-21T11:02:20;14.07;;;5.20;;
28130;SDS011;15418;42.634;23.374;2022-08-21T11:05:15;12.73;;;5.13;;
28130;SDS011;15418;42.634;23.374;2022-08-21T11:07:49;10.65;;;5.25;;
28130;SDS011;15418;42.634;23.374;2022-08-21T11:10:23;17.52;;;5.85;;
28130;SDS011;15418;42.634;23.374;2022-08-21T11:12:56;16.70;;;5.93;;
28130;SDS011;15418;42.634;23.374;2022-08-21T11:15:33;12.25;;;4.63;;
28130;SDS011;15418;42.634;23.374;2022-08-21T11:23:41;12.13;;;5.50;;
28130;SDS011;15418;42.634;23.374;2022-08-21T11:29:30;13.25;;;5.68;;
28130;SDS011;15418;42.634;23.374;2022-08-21T11:37:02;15.13;;;5.68;;
28130;SDS011;15418;42.634;23.374;2022-08-21T11:42:50;10.25;;;5.43;;
28130;SDS011;15418;42.634;23.374;2022-08-21T11:46:07;17.95;;;5.20;;
28130;SDS011;15418;42.634;23.374;2022-08-21T11:50:43;12.77;;;5.18;;
28130;SDS011;15418;42.634;23.374;2022-08-21T11:56:18;11.27;;;5.80;;
28130;SDS011;15418;42.634;23.374;2022-08-21T11:58:54;14.43;;;5.63;;
28130;SDS011;15418;42.634;23.374;2022-08-21T12:01:31;10.95;;;5.70;;
28130;SDS011;15418;42.634;23.374;2022-08-21T12:04:03;11.32;;;5.47;;
28130;SDS011;15418;42.634;23.374;2022-08-21T12:06:39;11.20;;;5.70;;
28130;SDS011;15418;42.634;23.374;2022-08-21T12:14:49;9.13;;;5.82;;
28130;SDS011;15418;42.634;23.374;2022-08-21T12:17:23;15.43;;;5.90;;
28130;SDS011;15418;42.634;23.374;2022-08-21T12:20:00;14.73;;;5.88;;
28130;SDS011;15418;42.634;23.374;2022-08-21T12:22:40;13.25;;;6.07;;
28130;SDS011;15418;42.634;23.374;2022-08-21T12:25:07;12.38;;;6.57;;
28130;SDS011;15418;42.634;23.374;2022-08-21T12:30:41;11.07;;;5.93;;
28130;SDS011;15418;42.634;23.374;2022-08-21T12:33:17;13.90;;;5.47;;
28130;SDS011;15418;42.634;23.374;2022-08-21T12:36:00;11.55;;;5.72;;
28130;SDS011;15418;42.634;23.374;2022-08-21T12:38:45;13.88;;;5.03;;
28130;SDS011;15418;42.634;23.374;2022-08-21T12:41:19;10.73;;;4.97;;
28130;SDS011;15418;42.634;23.374;2022-08-21T12:43:57;18.85;;;6.00;;
28130;SDS011;15418;42.634;23.374;2022-08-21T12:46:51;13.77;;;5.78;;
28130;SDS011;15418;42.634;23.374;2022-08-21T12:49:51;13.82;;;5.50;;
28130;SDS011;15418;42.634;23.374;2022-08-21T12:52:29;15.38;;;5.80;;
28130;SDS011;15418;42.634;23.374;2022-08-21T12:54:59;14.98;;;5.80;;
28130;SDS011;15418;42.634;23.374;2022-08-21T12:57:26;13.60;;;5.93;;
28130;SDS011;15418;42.634;23.374;2022-08-21T12:59:57;11.55;;;5.05;;
28130;SDS011;15418;42.634;23.374;2022-08-21T13:02:28;10.32;;;4.93;;
28130;SDS011;15418;42.634;23.374;2022-08-21T13:04:56;12.77;;;5.40;;
28130;SDS011;15418;42.634;23.374;2022-08-21T13:07:25;14.07;;;6.38;;
28130;SDS011;15418;42.634;23.374;2022-08-21T13:09:59;12.15;;;7.47;;
28130;SDS011;15418;42.634;23.374;2022-08-21T13:12:28;17.88;;;6.22;;
28130;SDS011;15418;42.634;23.374;2022-08-21T13:14:58;14.80;;;5.75;;
28130;SDS011;15418;42.634;23.374;2022-08-21T13:17:26;12.40;;;5.80;;
28130;SDS011;15418;42.634;23.374;2022-08-21T13:19:56;15.40;;;6.30;;
28130;SDS011;15418;42.634;23.374;2022-08-21T13:22:25;12.95;;;5.93;;
28130;SDS011;15418;42.634;23.374;2022-08-21T13:24:52;10.23;;;5.50;;
28130;SDS011;15418;42.634;23.374;2022-08-21T13:27:25;15.93;;;6.07;;
28130;SDS011;15418;42.634;23.374;2022-08-21T13:30:00;11.13;;;6.57;;
28130;SDS011;15418;42.634;23.374;2022-08-21T13:32:29;17.25;;;6.35;;
28130;SDS011;15418;42.634;23.374;2022-08-21T13:37:56;12.63;;;6.32;;
28130;SDS011;15418;42.634;23.374;2022-08-21T13:40:29;12.00;;;6.45;;
28130;SDS011;15418;42.634;23.374;2022-08-21T13:43:09;10.68;;;5.82;;
28130;SDS011;15418;42.634;23.374;2022-08-21T13:45:46;8.60;;;6.07;;
28130;SDS011;15418;42.634;23.374;2022-08-21T13:48:16;12.10;;;6.57;;
28130;SDS011;15418;42.634;23.374;2022-08-21T13:50:43;10.45;;;6.70;;
28130;SDS011;15418;42.634;23.374;2022-08-21T13:55:52;10.82;;;6.13;;
28130;SDS011;15418;42.634;23.374;2022-08-21T13:58:28;13.30;;;7.18;;
28130;SDS011;15418;42.634;23.374;2022-08-21T14:00:58;16.60;;;6.97;;
28130;SDS011;15418;42.634;23.374;2022-08-21T14:06:34;19.00;;;6.53;;
28130;SDS011;15418;42.634;23.374;2022-08-21T14:09:07;16.77;;;6.95;;
28130;SDS011;15418;42.634;23.374;2022-08-21T14:11:40;16.92;;;5.90;;
28130;SDS011;15418;42.634;23.374;2022-08-21T14:14:25;13.27;;;5.90;;
28130;SDS011;15418;42.634;23.374;2022-08-21T14:16:59;12.80;;;6.38;;
28130;SDS011;15418;42.634;23.374;2022-08-21T14:22:21;12.75;;;6.55;;
28130;SDS011;15418;42.634;23.374;2022-08-21T14:27:53;17.33;;;6.78;;
28130;SDS011;15418;42.634;23.374;2022-08-21T14:30:27;14.90;;;6.40;;
28130;SDS011;15418;42.634;23.374;2022-08-21T14:32:55;16.23;;;6.70;;
28130;SDS011;15418;42.634;23.374;2022-08-21T14:35:21;10.75;;;6.43;;
28130;SDS011;15418;42.634;23.374;2022-08-21T14:37:48;11.23;;;6.05;;
28130;SDS011;15418;42.634;23.374;2022-08-21T14:40:15;12.95;;;6.50;;
28130;SDS011;15418;42.634;23.374;2022-08-21T14:42:42;17.33;;;6.30;;
28130;SDS011;15418;42.634;23.374;2022-08-21T14:45:18;18.23;;;9.82;;
28130;SDS011;15418;42.634;23.374;2022-08-21T14:47:53;17.13;;;6.47;;
28130;SDS011;15418;42.634;23.374;2022-08-21T14:50:19;10.57;;;5.50;;
28130;SDS011;15418;42.634;23.374;2022-08-21T14:52:45;11.90;;;5.63;;
28130;SDS011;15418;42.634;23.374;2022-08-21T14:55:12;9.20;;;6.15;;
28130;SDS011;15418;42.634;23.374;2022-08-21T14:57:41;14.25;;;7.22;;
28130;SDS011;15418;42.634;23.374;2022-08-21T15:00:10;13.43;;;7.13;;
28130;SDS011;15418;42.634;23.374;2022-08-21T15:02:38;12.02;;;7.05;;
28130;SDS011;15418;42.634;23.374;2022-08-21T15:05:04;17.83;;;6.40;;
28130;SDS011;15418;42.634;23.374;2022-08-21T15:07:30;17.98;;;8.32;;
28130;SDS011;15418;42.634;23.374;2022-08-21T15:09:56;16.23;;;6.82;;
28130;SDS011;15418;42.634;23.374;2022-08-21T15:12:21;17.92;;;10.68;;
28130;SDS011;15418;42.634;23.374;2022-08-21T15:14:50;15.07;;;8.23;;
28130;SDS011;15418;42.634;23.374;2022-08-21T15:17:16;18.33;;;10.05;;
28130;SDS011;15418;42.634;23.374;2022-08-21T15:19:42;12.25;;;7.70;;
28130;SDS011;15418;42.634;23.374;2022-08-21T15:22:07;13.80;;;6.60;;
28130;SDS011;15418;42.634;23.374;2022-08-21T15:24:33;19.27;;;7.43;;
28130;SDS011;15418;42.634;23.374;2022-08-21T15:27:00;12.65;;;6.55;;
28130;SDS011;15418;42.634;23.374;2022-08-21T15:29:29;17.92;;;8.02;;
28130;SDS011;15418;42.634;23.374;2022-08-21T15:31:56;15.40;;;6.28;;
28130;SDS011;15418;42.634;23.374;2022-08-21T15:34:25;11.27;;;6.30;;
28130;SDS011;15418;42.634;23.374;2022-08-21T15:36:52;14.52;;;6.47;;
28130;SDS011;15418;42.634;23.374;2022-08-21T15:39:18;12.13;;;6.47;;
28130;SDS011;15418;42.634;23.374;2022-08-21T15:41:43;16.92;;;7.15;;
28130;SDS011;15418;42.634;23.374;2022-08-21T15:44:10;18.67;;;7.10;;
28130;SDS011;15418;42.634;23.374;2022-08-21T15:46:38;15.93;;;7.00;;
28130;SDS011;15418;42.634;23.374;2022-08-21T15:49:04;16.52;;;6.90;;
28130;SDS011;15418;42.634;23.374;2022-08-21T15:51:30;16.02;;;7.32;;
28130;SDS011;15418;42.634;23.374;2022-08-21T15:53:57;18.20;;;8.32;;
28130;SDS011;15418;42.634;23.374;2022-08-21T15:56:24;13.80;;;6.72;;
28130;SDS011;15418;42.634;23.374;2022-08-21T15:58:52;17.00;;;7.35;;
28130;SDS011;15418;42.634;23.374;2022-08-21T16:01:24;15.30;;;6.95;;
28130;SDS011;15418;42.634;23.374;2022-08-21T16:03:50;16.77;;;8.00;;
28130;SDS011;15418;42.634;23.374;2022-08-21T16:06:18;12.60;;;7.22;;